createdAt,value
2017-12-21T00:01:47.226Z,69.33
2017-12-21T00:04:14.623Z,65.70
2017-12-21T00:06:42.019Z,66.10
2017-12-21T00:09:09.420Z,62.20
2017-12-21T00:11:36.810Z,72.07
2017-12-21T00:14:04.210Z,62.87
2017-12-21T00:16:31.598Z,60.93
2017-12-21T00:18:59.027Z,77.47
2017-12-21T00:21:26.410Z,68.03
2017-12-21T00:23:53.810Z,64.07
2017-12-21T00:26:21.206Z,61.10
2017-12-21T00:28:48.603Z,69.50
2017-12-21T00:31:15.998Z,60.07
2017-12-21T00:33:43.471Z,70.13
2017-12-21T00:36:10.865Z,55.53
2017-12-21T00:38:38.274Z,67.83
2017-12-21T00:41:05.699Z,61.97
2017-12-21T00:43:33.095Z,50.00
2017-12-21T00:46:11.264Z,69.77
2017-12-21T00:48:38.764Z,72.13
2017-12-21T00:51:06.155Z,73.63
2017-12-21T00:53:33.888Z,79.53
2017-12-21T00:56:01.311Z,68.00
2017-12-21T00:58:28.721Z,77.60
2017-12-21T01:00:56.112Z,68.80
2017-12-21T01:03:23.520Z,104.23
2017-12-21T01:05:50.915Z,95.50
2017-12-21T01:08:18.411Z,83.80
2017-12-21T01:10:45.807Z,85.97
2017-12-21T01:13:13.212Z,77.37
2017-12-21T01:15:40.611Z,74.27
2017-12-21T01:18:08.011Z,66.03
2017-12-21T01:20:35.487Z,75.27
2017-12-21T01:23:02.896Z,73.17
2017-12-21T01:25:30.299Z,89.33
2017-12-21T01:27:57.703Z,66.47
2017-12-21T01:30:25.108Z,60.33
2017-12-21T01:32:52.577Z,69.23
2017-12-21T01:35:19.951Z,72.77
2017-12-21T01:37:47.347Z,75.80
2017-12-21T01:40:14.746Z,59.40
2017-12-21T01:42:42.166Z,76.93
2017-12-21T01:45:09.580Z,76.10
2017-12-21T01:47:36.991Z,63.97
2017-12-21T01:50:04.407Z,66.17
2017-12-21T01:52:31.807Z,61.67
2017-12-21T01:54:59.200Z,58.70
2017-12-21T01:57:26.605Z,50.60
2017-12-21T01:59:53.999Z,44.90
2017-12-21T02:02:21.402Z,56.07
2017-12-21T02:04:48.822Z,47.47
2017-12-21T02:07:16.220Z,50.00
2017-12-21T02:09:43.623Z,53.97
2017-12-21T02:12:11.017Z,41.77
2017-12-21T02:14:38.420Z,47.90
2017-12-21T02:17:05.831Z,52.83
2017-12-21T02:19:33.231Z,37.77
2017-12-21T02:22:00.623Z,45.30
2017-12-21T02:24:28.021Z,34.03
2017-12-21T02:26:55.411Z,31.73
2017-12-21T02:29:22.814Z,28.40
2017-12-21T02:31:50.222Z,37.13
2017-12-21T02:34:17.619Z,34.70
2017-12-21T02:36:45.015Z,33.83
2017-12-21T02:39:12.420Z,35.03
2017-12-21T02:41:39.817Z,30.57
2017-12-21T02:44:07.219Z,27.87
2017-12-21T02:46:34.611Z,35.83
2017-12-21T02:49:02.015Z,28.67
2017-12-21T02:51:29.415Z,33.27
2017-12-21T02:53:56.857Z,25.97
2017-12-21T02:56:24.205Z,22.30
2017-12-21T02:58:51.715Z,25.17
2017-12-21T03:01:19.108Z,20.97
2017-12-21T03:03:46.607Z,23.07
2017-12-21T03:06:14.006Z,24.07
2017-12-21T03:08:41.410Z,20.83
2017-12-21T03:11:08.806Z,16.63
2017-12-21T03:13:36.205Z,20.70
2017-12-21T03:16:03.591Z,27.70
2017-12-21T03:18:31.029Z,20.90
2017-12-21T03:20:58.409Z,20.00
2017-12-21T03:23:25.809Z,18.27
2017-12-21T03:25:53.195Z,17.77
2017-12-21T03:28:20.595Z,24.83
2017-12-21T03:30:47.991Z,16.00
2017-12-21T03:33:15.395Z,28.73
2017-12-21T03:35:42.775Z,19.07
2017-12-21T03:38:10.171Z,19.00
2017-12-21T03:40:37.586Z,18.77
2017-12-21T03:43:04.983Z,24.13
2017-12-21T03:45:32.371Z,22.00
2017-12-21T03:47:59.765Z,19.40
2017-12-21T03:50:27.262Z,23.70
2017-12-21T03:52:54.666Z,23.13
2017-12-21T03:55:22.051Z,24.20
2017-12-21T03:57:49.520Z,27.03
2017-12-21T04:00:16.927Z,21.90
2017-12-21T04:02:44.315Z,20.40
2017-12-21T04:05:11.719Z,23.63
2017-12-21T04:07:39.139Z,22.83
2017-12-21T04:10:06.527Z,21.83
2017-12-21T04:12:33.920Z,19.00
2017-12-21T04:15:01.316Z,17.77
2017-12-21T04:17:28.702Z,17.03
2017-12-21T04:19:56.100Z,18.43
2017-12-21T04:22:23.482Z,16.20
2017-12-21T04:24:51.316Z,16.63
2017-12-21T04:27:18.705Z,22.67
2017-12-21T04:29:46.113Z,17.53
2017-12-21T04:32:13.612Z,15.13
2017-12-21T04:34:41.015Z,18.30
2017-12-21T04:37:08.432Z,18.47
2017-12-21T04:39:35.821Z,17.37
2017-12-21T04:42:03.215Z,13.80
2017-12-21T04:44:30.615Z,21.17
2017-12-21T04:46:58.064Z,24.50
2017-12-21T04:49:25.419Z,19.00
2017-12-21T04:51:52.865Z,17.00
2017-12-21T04:54:20.242Z,16.33
2017-12-21T04:56:47.663Z,18.10
2017-12-21T04:59:15.092Z,17.17
2017-12-21T05:01:42.592Z,17.07
2017-12-21T05:04:10.034Z,19.67
2017-12-21T05:06:37.423Z,15.00
2017-12-21T05:09:04.816Z,12.70
2017-12-21T05:11:32.208Z,16.20
2017-12-21T05:13:59.627Z,14.87
2017-12-21T05:16:27.019Z,16.30
2017-12-21T05:18:54.419Z,14.57
2017-12-21T05:21:21.923Z,13.80
2017-12-21T05:23:49.315Z,12.23
2017-12-21T05:26:16.700Z,15.03
2017-12-21T05:28:44.095Z,14.40
2017-12-21T05:31:11.484Z,13.43
2017-12-21T05:33:38.882Z,16.73
2017-12-21T05:36:06.280Z,19.50
2017-12-21T05:38:33.679Z,16.03
2017-12-21T05:41:01.071Z,14.70
2017-12-21T05:43:28.651Z,18.73
2017-12-21T05:45:56.038Z,15.33
2017-12-21T05:48:23.533Z,16.23
2017-12-21T05:50:50.994Z,23.40
2017-12-21T05:53:18.390Z,22.07
2017-12-21T05:55:45.783Z,20.70
2017-12-21T05:58:13.255Z,22.30
2017-12-21T06:00:40.646Z,19.27
2017-12-21T06:03:08.081Z,17.07
2017-12-21T06:05:35.464Z,25.70
2017-12-21T06:08:02.846Z,19.57
2017-12-21T06:10:30.247Z,23.70
2017-12-21T06:12:57.646Z,23.40
2017-12-21T06:15:25.039Z,18.73
2017-12-21T06:17:52.431Z,25.60
2017-12-21T06:20:19.826Z,22.07
2017-12-21T06:22:47.216Z,16.17
2017-12-21T06:25:14.674Z,22.47
2017-12-21T06:27:42.001Z,21.60
2017-12-21T06:30:09.407Z,19.00
2017-12-21T06:32:36.796Z,19.50
2017-12-21T06:35:04.211Z,16.00
2017-12-21T06:37:31.603Z,18.77
2017-12-21T06:39:58.999Z,18.17
2017-12-21T06:42:26.395Z,18.43
2017-12-21T06:44:53.810Z,18.43
2017-12-21T06:47:21.200Z,16.97
2017-12-21T06:49:48.594Z,16.80
2017-12-21T06:52:15.980Z,19.93
2017-12-21T06:54:43.435Z,19.00
2017-12-21T06:57:10.897Z,22.70
2017-12-21T06:59:38.331Z,22.67
2017-12-21T07:02:05.718Z,20.00
2017-12-21T07:04:33.118Z,20.53
2017-12-21T07:07:00.502Z,24.03
2017-12-21T07:09:27.903Z,22.83
2017-12-21T07:11:55.293Z,22.30
2017-12-21T07:14:22.706Z,21.80
2017-12-21T07:16:50.089Z,21.00
2017-12-21T07:19:17.494Z,25.23
2017-12-21T07:21:44.879Z,23.93
2017-12-21T07:24:12.295Z,30.53
2017-12-21T07:26:39.687Z,29.20
2017-12-21T07:29:07.091Z,31.63
2017-12-21T07:31:34.550Z,30.90
2017-12-21T07:34:01.995Z,35.87
2017-12-21T07:36:29.376Z,57.47
2017-12-21T07:38:56.771Z,39.93
2017-12-21T07:41:24.178Z,44.17
2017-12-21T07:43:51.638Z,36.17
2017-12-21T07:46:19.039Z,38.07
2017-12-21T07:48:46.426Z,36.70
2017-12-21T07:51:13.832Z,40.20
2017-12-21T07:53:41.228Z,25.97
2017-12-21T07:56:08.680Z,26.30
2017-12-21T07:58:36.067Z,24.90
2017-12-21T08:01:03.470Z,23.87
2017-12-21T08:03:30.864Z,31.57
2017-12-21T08:05:58.331Z,26.27
2017-12-21T08:08:25.727Z,22.00
2017-12-21T08:10:53.126Z,30.40
2017-12-21T08:13:20.523Z,26.80
2017-12-21T08:15:47.923Z,29.10
2017-12-21T08:18:15.310Z,28.83
2017-12-21T08:20:42.726Z,30.20
2017-12-21T08:23:10.122Z,25.60
2017-12-21T08:25:37.530Z,27.53
2017-12-21T08:28:04.915Z,30.03
2017-12-21T08:30:32.323Z,28.97
2017-12-21T08:32:59.719Z,30.20
2017-12-21T08:35:27.262Z,37.27
2017-12-21T08:37:54.599Z,28.83
2017-12-21T08:40:22.005Z,28.67
2017-12-21T08:42:49.387Z,34.73
2017-12-21T08:45:16.788Z,35.47
2017-12-21T08:47:44.189Z,32.53
2017-12-21T08:50:11.608Z,31.03
2017-12-21T08:52:39.082Z,28.80
2017-12-21T08:55:07.137Z,33.20
2017-12-21T08:57:34.526Z,33.20
2017-12-21T09:00:01.951Z,34.73
2017-12-21T09:02:29.421Z,30.23
2017-12-21T09:04:56.818Z,28.10
2017-12-21T09:07:24.207Z,31.87
2017-12-21T09:09:51.615Z,30.50
2017-12-21T09:12:19.007Z,34.70
2017-12-21T09:14:46.409Z,37.93
2017-12-21T09:17:13.798Z,38.37
2017-12-21T09:19:41.205Z,40.77
2017-12-21T09:22:08.590Z,38.90
2017-12-21T09:24:35.990Z,33.43
2017-12-21T09:27:03.383Z,41.83
2017-12-21T09:29:30.782Z,42.30
2017-12-21T09:31:58.175Z,37.73
2017-12-21T09:34:25.575Z,46.23
2017-12-21T09:36:52.975Z,43.10
2017-12-21T09:39:20.374Z,42.70
2017-12-21T09:41:47.923Z,39.57
2017-12-21T09:44:15.340Z,40.83
2017-12-21T09:46:42.823Z,35.03
2017-12-21T09:49:10.226Z,33.97
2017-12-21T09:51:37.618Z,27.90
2017-12-21T09:54:05.020Z,24.47
2017-12-21T09:56:32.423Z,17.77
2017-12-21T09:59:00.719Z,8.33
2017-12-21T10:01:28.115Z,10.47
2017-12-21T10:03:55.510Z,11.00
2017-12-21T10:06:22.990Z,15.00
2017-12-21T10:08:50.446Z,14.87
2017-12-21T10:11:17.834Z,10.47
2017-12-21T10:13:45.234Z,13.70
2017-12-21T10:16:12.725Z,13.93
2017-12-21T10:18:40.114Z,16.27
2017-12-21T10:21:07.507Z,15.73
2017-12-21T10:23:34.898Z,10.40
2017-12-21T10:26:02.336Z,12.00
2017-12-21T10:28:29.733Z,12.50
2017-12-21T10:30:57.175Z,13.90
2017-12-21T10:33:24.562Z,13.73
2017-12-21T10:35:51.955Z,12.90
2017-12-21T10:38:19.406Z,20.53
2017-12-21T10:40:46.818Z,14.43
2017-12-21T10:43:14.190Z,10.57
2017-12-21T10:45:41.632Z,11.93
2017-12-21T10:48:09.015Z,12.93
2017-12-21T10:50:36.402Z,11.77
2017-12-21T10:53:03.791Z,9.60
2017-12-21T10:55:31.183Z,10.30
2017-12-21T10:57:58.653Z,9.47
2017-12-21T11:00:26.048Z,7.50
2017-12-21T11:02:53.438Z,9.57
2017-12-21T11:05:20.831Z,9.00
2017-12-21T11:07:48.210Z,9.10
2017-12-21T11:10:15.599Z,5.37
2017-12-21T11:12:42.983Z,5.10
2017-12-21T11:15:10.390Z,4.80
2017-12-21T11:17:37.794Z,7.07
2017-12-21T11:20:05.183Z,7.70
2017-12-21T11:22:32.569Z,6.73
2017-12-21T11:24:59.955Z,7.40
2017-12-21T11:27:27.421Z,6.90
2017-12-21T11:29:54.812Z,6.57
2017-12-21T11:32:22.222Z,5.23
2017-12-21T11:34:49.614Z,4.80
2017-12-21T11:37:17.315Z,5.67
2017-12-21T11:39:44.698Z,5.87
2017-12-21T11:42:12.095Z,6.60
2017-12-21T11:44:39.475Z,5.80
2017-12-21T11:47:06.958Z,8.07
2017-12-21T11:49:34.347Z,9.37
2017-12-21T11:52:01.737Z,7.77
2017-12-21T11:54:29.123Z,6.00
2017-12-21T11:56:56.515Z,7.30
2017-12-21T11:59:23.901Z,10.40
2017-12-21T12:01:51.290Z,7.50
2017-12-21T12:04:18.679Z,6.10
2017-12-21T12:06:46.075Z,8.57
2017-12-21T12:09:13.455Z,6.77
2017-12-21T12:11:40.911Z,9.03
2017-12-21T12:14:08.303Z,17.13
2017-12-21T12:16:35.704Z,6.73
2017-12-21T12:19:03.088Z,9.83
2017-12-21T12:21:30.479Z,8.20
2017-12-21T12:23:57.903Z,6.13
2017-12-21T12:26:25.299Z,6.17
2017-12-21T12:28:52.684Z,5.57
2017-12-21T12:31:20.092Z,6.00
2017-12-21T12:33:47.475Z,11.60
2017-12-21T12:36:14.934Z,8.30
2017-12-21T12:38:42.327Z,6.63
2017-12-21T12:41:09.720Z,6.80
2017-12-21T12:43:37.098Z,4.50
2017-12-21T12:46:04.496Z,4.33
2017-12-21T12:48:31.889Z,6.03
2017-12-21T12:50:59.267Z,6.13
2017-12-21T12:53:26.647Z,7.50
2017-12-21T12:55:54.035Z,4.77
2017-12-21T12:58:21.425Z,4.13
2017-12-21T13:00:48.812Z,5.13
2017-12-21T13:03:16.271Z,4.50
2017-12-21T13:05:43.663Z,6.70
2017-12-21T13:08:11.055Z,3.37
2017-12-21T13:10:38.447Z,3.77
2017-12-21T13:13:05.831Z,4.33
2017-12-21T13:15:33.211Z,5.00
2017-12-21T13:18:00.654Z,4.97
2017-12-21T13:20:28.842Z,3.67
2017-12-21T13:22:56.283Z,4.17
2017-12-21T13:25:23.691Z,3.57
2017-12-21T13:27:51.090Z,4.73
2017-12-21T13:30:18.482Z,6.20
2017-12-21T13:32:45.869Z,3.83
2017-12-21T13:35:13.266Z,6.33
2017-12-21T13:37:40.668Z,4.40
2017-12-21T13:40:08.053Z,4.30
2017-12-21T13:42:35.475Z,4.60
2017-12-21T13:45:02.868Z,3.70
2017-12-21T13:47:30.271Z,3.87
2017-12-21T13:49:57.671Z,3.80
2017-12-21T13:52:25.059Z,3.37
2017-12-21T13:54:52.554Z,6.40
2017-12-21T13:57:19.943Z,4.63
2017-12-21T13:59:47.336Z,4.70
2017-12-21T14:02:14.738Z,4.40
2017-12-21T14:04:42.123Z,3.93
2017-12-21T14:07:09.510Z,4.67
2017-12-21T14:09:36.899Z,4.57
2017-12-21T14:12:04.341Z,5.23
2017-12-21T14:14:31.819Z,5.33
2017-12-21T14:16:59.210Z,5.70
2017-12-21T14:19:26.599Z,5.30
2017-12-21T14:21:53.991Z,6.20
2017-12-21T14:24:21.379Z,5.43
2017-12-21T14:26:48.875Z,9.03
2017-12-21T14:29:16.262Z,9.67
2017-12-21T14:31:43.657Z,5.60
2017-12-21T14:34:11.039Z,8.73
2017-12-21T14:36:38.433Z,14.30
2017-12-21T14:39:05.819Z,7.80
2017-12-21T14:41:33.222Z,6.70
2017-12-21T14:44:00.622Z,5.30
2017-12-21T14:46:28.119Z,8.60
2017-12-21T14:48:55.509Z,6.07
2017-12-21T14:51:22.899Z,5.60
2017-12-21T14:53:50.383Z,6.03
2017-12-21T14:56:17.783Z,10.10
2017-12-21T14:58:45.162Z,7.90
2017-12-21T15:01:12.561Z,7.73
2017-12-21T15:03:39.943Z,7.63
2017-12-21T15:06:07.339Z,5.87
2017-12-21T15:08:34.825Z,9.83
2017-12-21T15:11:02.272Z,9.80
2017-12-21T15:13:29.658Z,8.60
2017-12-21T15:15:57.046Z,8.97
2017-12-21T15:18:24.445Z,8.63
2017-12-21T15:20:51.895Z,10.83
2017-12-21T15:23:19.287Z,9.10
2017-12-21T15:25:46.675Z,11.30
2017-12-21T15:28:14.060Z,9.60
2017-12-21T15:30:41.442Z,7.20
2017-12-21T15:33:08.835Z,9.70
2017-12-21T15:35:36.223Z,10.23
2017-12-21T15:38:03.619Z,11.73
2017-12-21T15:40:31.007Z,9.60
2017-12-21T15:42:58.401Z,8.00
2017-12-21T15:45:25.787Z,9.67
2017-12-21T15:47:53.201Z,9.67
2017-12-21T15:50:20.583Z,8.80
2017-12-21T15:52:48.013Z,16.20
2017-12-21T15:55:15.391Z,7.60
2017-12-21T15:57:42.791Z,10.97
2017-12-21T16:00:10.174Z,9.90
2017-12-21T16:02:37.573Z,12.83
2017-12-21T16:05:04.982Z,9.77
2017-12-21T16:07:32.382Z,13.63
2017-12-21T16:09:59.783Z,11.40
2017-12-21T16:12:27.219Z,15.53
2017-12-21T16:14:54.584Z,15.17
2017-12-21T16:17:21.987Z,14.50
2017-12-21T16:19:49.379Z,15.80
2017-12-21T16:22:16.798Z,16.03
2017-12-21T16:24:44.188Z,15.10
2017-12-21T16:27:11.692Z,18.10
2017-12-21T16:29:39.094Z,16.90
2017-12-21T16:32:06.590Z,17.50
2017-12-21T16:34:34.042Z,22.60
2017-12-21T16:37:01.434Z,19.73
2017-12-21T16:39:28.835Z,22.60
2017-12-21T16:41:56.234Z,25.63
2017-12-21T16:44:23.773Z,21.13
2017-12-21T16:46:51.159Z,22.23
2017-12-21T16:49:18.555Z,24.23
2017-12-21T16:51:45.960Z,24.03
2017-12-21T16:54:13.383Z,25.50
2017-12-21T16:56:40.767Z,25.77
2017-12-21T16:59:08.188Z,23.17
2017-12-21T17:01:35.581Z,24.50
2017-12-21T17:04:02.971Z,23.33
2017-12-21T17:06:30.371Z,24.07
2017-12-21T17:08:57.767Z,21.67
2017-12-21T17:11:25.161Z,27.23
2017-12-21T17:13:52.557Z,24.30
2017-12-21T17:16:19.954Z,35.30
2017-12-21T17:18:47.460Z,30.10
2017-12-21T17:21:15.171Z,38.23
2017-12-21T17:23:42.572Z,31.60
2017-12-21T17:26:09.975Z,32.63
2017-12-21T17:28:37.387Z,37.63
2017-12-21T17:31:04.831Z,29.90
2017-12-21T17:33:32.186Z,29.60
2017-12-21T17:35:59.592Z,27.73
2017-12-21T17:38:27.007Z,34.20
2017-12-21T17:40:54.403Z,32.87
2017-12-21T17:43:22.409Z,34.73
2017-12-21T17:45:49.797Z,40.43
2017-12-21T17:48:17.233Z,67.63
2017-12-21T17:50:44.630Z,98.10
2017-12-21T17:53:12.040Z,74.83
2017-12-21T17:55:39.433Z,69.80
2017-12-21T17:58:06.842Z,62.90
2017-12-21T18:00:34.244Z,53.40
2017-12-21T18:03:01.675Z,62.13
2017-12-21T18:05:29.103Z,77.83
2017-12-21T18:07:56.592Z,60.37
2017-12-21T18:10:23.987Z,63.53
2017-12-21T18:12:51.387Z,50.73
2017-12-21T18:15:18.856Z,51.03
2017-12-21T18:17:46.313Z,57.00
2017-12-21T18:20:13.707Z,66.63
2017-12-21T18:22:41.106Z,44.73
2017-12-21T18:25:08.504Z,40.43
2017-12-21T18:27:35.917Z,46.50
2017-12-21T18:30:03.843Z,42.53
2017-12-21T18:32:31.359Z,37.43
2017-12-21T18:34:58.755Z,46.67
2017-12-21T18:37:26.154Z,46.00
2017-12-21T18:39:53.552Z,50.60
2017-12-21T18:42:20.954Z,71.30
2017-12-21T18:44:48.355Z,76.30
2017-12-21T18:47:15.751Z,85.47
2017-12-21T18:49:43.151Z,63.63
2017-12-21T18:52:10.555Z,54.27
2017-12-21T18:54:38.054Z,65.60
2017-12-21T18:57:05.451Z,57.23
2017-12-21T18:59:32.854Z,60.70
2017-12-21T19:02:00.251Z,63.30
2017-12-21T19:04:27.679Z,49.07
2017-12-21T19:06:55.094Z,52.50
2017-12-21T19:09:22.495Z,46.37
2017-12-21T19:11:49.957Z,51.33
2017-12-21T19:14:17.351Z,47.20
2017-12-21T19:16:44.753Z,44.47
2017-12-21T19:19:12.145Z,47.87
2017-12-21T19:21:39.541Z,46.10
2017-12-21T19:24:06.939Z,57.77
2017-12-21T19:26:34.336Z,40.37
2017-12-21T19:29:01.732Z,42.43
2017-12-21T19:31:29.127Z,40.90
2017-12-21T19:33:56.572Z,41.10
2017-12-21T19:36:23.963Z,39.20
2017-12-21T19:38:51.450Z,42.07
2017-12-21T19:41:18.856Z,37.23
2017-12-21T19:43:46.251Z,33.90
2017-12-21T19:46:13.671Z,31.60
2017-12-21T19:48:41.079Z,25.40
2017-12-21T19:51:08.475Z,30.40
2017-12-21T19:53:35.936Z,44.60
2017-12-21T19:56:03.331Z,32.53
2017-12-21T19:58:30.727Z,32.70
2017-12-21T20:00:58.140Z,32.50
2017-12-21T20:03:25.603Z,24.80
2017-12-21T20:05:53.067Z,28.67
2017-12-21T20:08:20.459Z,34.03
2017-12-21T20:10:47.851Z,29.90
2017-12-21T20:13:15.254Z,28.93
2017-12-21T20:15:42.656Z,27.17
2017-12-21T20:18:10.082Z,35.70
2017-12-21T20:20:37.464Z,29.97
2017-12-21T20:23:04.877Z,30.47
2017-12-21T20:25:32.278Z,31.90
2017-12-21T20:27:59.683Z,36.00
2017-12-21T20:30:27.159Z,36.70
2017-12-21T20:32:54.551Z,38.23
2017-12-21T20:35:21.953Z,37.70
2017-12-21T20:37:49.348Z,44.70
2017-12-21T20:40:16.741Z,41.10
2017-12-21T20:42:44.135Z,49.17
2017-12-21T20:45:11.631Z,51.70
2017-12-21T20:47:39.024Z,48.73
2017-12-21T20:50:06.423Z,50.73
2017-12-21T20:52:33.815Z,52.23
2017-12-21T20:55:01.266Z,57.10
2017-12-21T20:57:28.655Z,66.20
2017-12-21T20:59:56.056Z,54.20
2017-12-21T21:02:23.540Z,66.63
2017-12-21T21:04:51.018Z,69.23
2017-12-21T21:07:18.436Z,52.77
2017-12-21T21:09:45.838Z,69.77
2017-12-21T21:12:14.014Z,69.23
2017-12-21T21:14:41.412Z,76.67
2017-12-21T21:17:08.803Z,61.00
2017-12-21T21:19:36.360Z,68.80
2017-12-21T21:22:03.807Z,64.63
2017-12-21T21:24:31.323Z,68.93
2017-12-21T21:26:58.712Z,59.53
2017-12-21T21:29:26.133Z,58.83
2017-12-21T21:31:53.556Z,64.00
2017-12-21T21:34:21.027Z,57.20
2017-12-21T21:36:48.429Z,64.63
2017-12-21T21:39:15.843Z,63.77
2017-12-21T21:41:43.247Z,67.37
2017-12-21T21:44:10.646Z,63.87
2017-12-21T21:46:38.048Z,61.53
2017-12-21T21:49:05.443Z,64.47
2017-12-21T21:51:32.834Z,69.20
2017-12-21T21:54:00.234Z,65.97
2017-12-21T21:56:27.654Z,63.63
2017-12-21T21:58:55.051Z,68.67
2017-12-21T22:01:22.459Z,65.83
2017-12-21T22:03:49.852Z,63.57
2017-12-21T22:06:17.263Z,60.27
2017-12-21T22:08:44.664Z,55.00
2017-12-21T22:11:12.068Z,56.30
2017-12-21T22:13:39.475Z,60.30
2017-12-21T22:16:06.896Z,58.30
2017-12-21T22:18:34.276Z,67.97
2017-12-21T22:21:01.735Z,65.90
2017-12-21T22:23:29.125Z,55.50
2017-12-21T22:25:56.538Z,60.60
2017-12-21T22:28:23.935Z,58.50
2017-12-21T22:30:51.350Z,57.30
2017-12-21T22:33:18.754Z,57.13
2017-12-21T22:35:46.147Z,65.17
2017-12-21T22:38:13.582Z,59.83
2017-12-21T22:40:41.012Z,58.70
2017-12-21T22:43:08.415Z,62.57
2017-12-21T22:45:35.805Z,54.23
2017-12-21T22:48:03.227Z,57.67
2017-12-21T22:50:30.621Z,67.67
2017-12-21T22:52:58.027Z,66.50
2017-12-21T22:55:25.425Z,70.43
2017-12-21T22:57:52.863Z,74.83
2017-12-21T23:00:25.799Z,74.55
2017-12-21T23:02:53.798Z,76.90
2017-12-21T23:05:22.555Z,62.00
2017-12-21T23:07:49.982Z,65.90
2017-12-21T23:10:17.371Z,59.27
2017-12-21T23:12:44.770Z,64.20
2017-12-21T23:15:12.184Z,68.07
2017-12-21T23:17:39.567Z,65.70
2017-12-21T23:20:06.964Z,62.13
2017-12-21T23:22:34.471Z,64.33
2017-12-21T23:25:01.828Z,63.70
2017-12-21T23:27:29.243Z,74.73
2017-12-21T23:29:56.647Z,59.00
2017-12-21T23:32:24.054Z,60.53
2017-12-21T23:34:51.444Z,56.77
2017-12-21T23:37:18.847Z,60.77
2017-12-21T23:39:46.239Z,68.77
2017-12-21T23:42:13.742Z,61.03
2017-12-21T23:44:41.141Z,63.07
2017-12-21T23:47:08.526Z,65.47
2017-12-21T23:49:35.927Z,58.60
2017-12-21T23:52:03.315Z,58.40
2017-12-21T23:54:30.715Z,55.57
2017-12-21T23:56:58.108Z,52.13
2017-12-21T23:59:25.579Z,53.43
